sensor_id;sensor_type;location;lat;lon;timestamp;temperature;humidity
20946;DHT22;10632;51.276;7.116;2023-02-01T00:00:57;4.70;99.90
20946;DHT22;10632;51.276;7.116;2023-02-01T00:03:24;4.70;99.90
20946;DHT22;10632;51.276;7.116;2023-02-01T00:05:55;4.70;99.90
20946;DHT22;10632;51.276;7.116;2023-02-01T00:08:23;4.70;99.90
20946;DHT22;10632;51.276;7.116;2023-02-01T00:10:59;4.70;99.90
20946;DHT22;10632;51.276;7.116;2023-02-01T00:13:30;4.70;99.90
20946;DHT22;10632;51.276;7.116;2023-02-01T00:16:04;4.70;99.90
20946;DHT22;10632;51.276;7.116;2023-02-01T00:18:31;4.70;99.90
20946;DHT22;10632;51.276;7.116;2023-02-01T00:20:57;4.70;99.90
20946;DHT22;10632;51.276;7.116;2023-02-01T00:23:24;4.70;99.90
20946;DHT22;10632;51.276;7.116;2023-02-01T00:25:51;4.70;99.90
20946;DHT22;10632;51.276;7.116;2023-02-01T00:28:20;4.70;99.90
20946;DHT22;10632;51.276;7.116;2023-02-01T00:30:46;4.70;99.90
20946;DHT22;10632;51.276;7.116;2023-02-01T00:33:22;4.70;99.90
20946;DHT22;10632;51.276;7.116;2023-02-01T00:35:48;4.70;99.90
20946;DHT22;10632;51.276;7.116;2023-02-01T00:38:15;4.70;99.90
20946;DHT22;10632;51.276;7.116;2023-02-01T00:40:42;4.60;99.90
20946;DHT22;10632;51.276;7.116;2023-02-01T00:43:09;4.70;99.90
20946;DHT22;10632;51.276;7.116;2023-02-01T00:45:38;4.70;99.90
20946;DHT22;10632;51.276;7.116;2023-02-01T00:48:08;4.60;99.90
20946;DHT22;10632;51.276;7.116;2023-02-01T00:50:35;4.60;99.90
20946;DHT22;10632;51.276;7.116;2023-02-01T00:53:02;4.60;99.90
20946;DHT22;10632;51.276;7.116;2023-02-01T00:55:29;4.70;99.90
20946;DHT22;10632;51.276;7.116;2023-02-01T00:57:55;4.60;99.90
20946;DHT22;10632;51.276;7.116;2023-02-01T01:00:22;4.70;99.90
20946;DHT22;10632;51.276;7.116;2023-02-01T01:02:51;4.60;99.90
20946;DHT22;10632;51.276;7.116;2023-02-01T01:05:20;4.60;99.90
20946;DHT22;10632;51.276;7.116;2023-02-01T01:07:47;4.60;99.90
20946;DHT22;10632;51.276;7.116;2023-02-01T01:10:14;4.60;99.90
20946;DHT22;10632;51.276;7.116;2023-02-01T01:12:41;4.60;99.90
20946;DHT22;10632;51.276;7.116;2023-02-01T01:15:09;4.60;99.90
20946;DHT22;10632;51.276;7.116;2023-02-01T01:17:36;4.70;99.90
20946;DHT22;10632;51.276;7.116;2023-02-01T01:20:05;4.60;99.90
20946;DHT22;10632;51.276;7.116;2023-02-01T01:22:32;4.70;99.90
20946;DHT22;10632;51.276;7.116;2023-02-01T01:24:59;4.60;99.90
20946;DHT22;10632;51.276;7.116;2023-02-01T01:27:26;4.60;99.90
20946;DHT22;10632;51.276;7.116;2023-02-01T01:29:53;4.60;99.90
20946;DHT22;10632;51.276;7.116;2023-02-01T01:32:20;4.60;99.90
20946;DHT22;10632;51.276;7.116;2023-02-01T01:34:47;4.60;99.90
20946;DHT22;10632;51.276;7.116;2023-02-01T01:37:15;4.60;99.90
20946;DHT22;10632;51.276;7.116;2023-02-01T01:39:42;4.50;99.90
20946;DHT22;10632;51.276;7.116;2023-02-01T01:42:11;4.60;99.90
20946;DHT22;10632;51.276;7.116;2023-02-01T01:45:00;4.50;99.90
20946;DHT22;10632;51.276;7.116;2023-02-01T01:47:31;4.50;99.90
20946;DHT22;10632;51.276;7.116;2023-02-01T01:50:01;4.50;99.90
20946;DHT22;10632;51.276;7.116;2023-02-01T01:52:30;4.50;99.90
20946;DHT22;10632;51.276;7.116;2023-02-01T01:54:58;4.50;99.90
20946;DHT22;10632;51.276;7.116;2023-02-01T01:57:27;4.50;99.90
20946;DHT22;10632;51.276;7.116;2023-02-01T02:00:00;4.50;99.90
20946;DHT22;10632;51.276;7.116;2023-02-01T02:02:28;4.50;99.90
20946;DHT22;10632;51.276;7.116;2023-02-01T02:04:55;4.50;99.90
20946;DHT22;10632;51.276;7.116;2023-02-01T02:07:26;4.60;99.90
20946;DHT22;10632;51.276;7.116;2023-02-01T02:09:56;4.50;99.90
20946;DHT22;10632;51.276;7.116;2023-02-01T02:12:23;4.50;99.90
20946;DHT22;10632;51.276;7.116;2023-02-01T02:14:50;4.50;99.90
20946;DHT22;10632;51.276;7.116;2023-02-01T02:17:28;4.50;99.90
20946;DHT22;10632;51.276;7.116;2023-02-01T02:20:33;4.50;99.90
20946;DHT22;10632;51.276;7.116;2023-02-01T02:26:34;4.50;99.90
20946;DHT22;10632;51.276;7.116;2023-02-01T02:35:37;4.40;99.90
20946;DHT22;10632;51.276;7.116;2023-02-01T02:38:13;4.40;99.90
20946;DHT22;10632;51.276;7.116;2023-02-01T02:40:48;4.30;99.90
20946;DHT22;10632;51.276;7.116;2023-02-01T02:43:21;4.30;99.90
20946;DHT22;10632;51.276;7.116;2023-02-01T02:46:19;4.30;99.90
20946;DHT22;10632;51.276;7.116;2023-02-01T02:49:09;4.30;99.90
20946;DHT22;10632;51.276;7.116;2023-02-01T02:51:42;4.20;99.90
20946;DHT22;10632;51.276;7.116;2023-02-01T02:54:30;4.20;99.90
20946;DHT22;10632;51.276;7.116;2023-02-01T02:57:18;4.20;99.90
20946;DHT22;10632;51.276;7.116;2023-02-01T03:00:06;4.20;99.90
20946;DHT22;10632;51.276;7.116;2023-02-01T03:02:55;4.20;99.90
20946;DHT22;10632;51.276;7.116;2023-02-01T03:05:42;4.20;99.90
20946;DHT22;10632;51.276;7.116;2023-02-01T03:08:12;4.20;99.90
20946;DHT22;10632;51.276;7.116;2023-02-01T03:10:48;4.20;99.90
20946;DHT22;10632;51.276;7.116;2023-02-01T03:13:24;4.20;99.90
20946;DHT22;10632;51.276;7.116;2023-02-01T03:15:56;4.20;99.90
20946;DHT22;10632;51.276;7.116;2023-02-01T03:18:28;4.20;99.90
20946;DHT22;10632;51.276;7.116;2023-02-01T03:21:00;4.20;99.90
20946;DHT22;10632;51.276;7.116;2023-02-01T03:23:34;4.20;99.90
20946;DHT22;10632;51.276;7.116;2023-02-01T03:26:04;4.20;99.90
20946;DHT22;10632;51.276;7.116;2023-02-01T03:28:34;4.20;99.90
20946;DHT22;10632;51.276;7.116;2023-02-01T03:31:01;4.20;99.90
20946;DHT22;10632;51.276;7.116;2023-02-01T03:33:29;4.20;99.90
20946;DHT22;10632;51.276;7.116;2023-02-01T03:36:15;4.20;99.90
20946;DHT22;10632;51.276;7.116;2023-02-01T03:38:50;4.20;99.90
20946;DHT22;10632;51.276;7.116;2023-02-01T03:41:23;4.30;99.90
20946;DHT22;10632;51.276;7.116;2023-02-01T03:43:53;4.30;99.90
20946;DHT22;10632;51.276;7.116;2023-02-01T03:46:27;4.20;99.90
20946;DHT22;10632;51.276;7.116;2023-02-01T03:49:00;4.20;99.90
20946;DHT22;10632;51.276;7.116;2023-02-01T03:51:28;4.20;99.90
20946;DHT22;10632;51.276;7.116;2023-02-01T03:53:57;4.20;99.90
20946;DHT22;10632;51.276;7.116;2023-02-01T03:56:27;4.20;99.90
20946;DHT22;10632;51.276;7.116;2023-02-01T03:58:55;4.20;99.90
20946;DHT22;10632;51.276;7.116;2023-02-01T04:01:26;4.20;99.90
20946;DHT22;10632;51.276;7.116;2023-02-01T04:03:53;4.20;99.90
20946;DHT22;10632;51.276;7.116;2023-02-01T04:06:21;4.20;99.90
20946;DHT22;10632;51.276;7.116;2023-02-01T04:08:48;4.20;99.90
20946;DHT22;10632;51.276;7.116;2023-02-01T04:11:16;4.20;99.90
20946;DHT22;10632;51.276;7.116;2023-02-01T04:13:44;4.30;99.90
20946;DHT22;10632;51.276;7.116;2023-02-01T04:16:11;4.30;99.90
20946;DHT22;10632;51.276;7.116;2023-02-01T04:18:38;4.30;99.90
20946;DHT22;10632;51.276;7.116;2023-02-01T04:21:05;4.30;99.90
20946;DHT22;10632;51.276;7.116;2023-02-01T04:23:32;4.40;99.90
20946;DHT22;10632;51.276;7.116;2023-02-01T04:25:59;4.40;99.90
20946;DHT22;10632;51.276;7.116;2023-02-01T04:28:29;4.40;99.90
20946;DHT22;10632;51.276;7.116;2023-02-01T04:30:56;4.30;99.90
20946;DHT22;10632;51.276;7.116;2023-02-01T04:33:23;4.30;99.90
20946;DHT22;10632;51.276;7.116;2023-02-01T04:35:50;4.40;99.90
20946;DHT22;10632;51.276;7.116;2023-02-01T04:38:17;4.40;99.90
20946;DHT22;10632;51.276;7.116;2023-02-01T04:40:47;4.40;99.90
20946;DHT22;10632;51.276;7.116;2023-02-01T04:43:13;4.40;99.90
20946;DHT22;10632;51.276;7.116;2023-02-01T04:45:46;4.40;99.90
20946;DHT22;10632;51.276;7.116;2023-02-01T04:48:13;4.40;99.90
20946;DHT22;10632;51.276;7.116;2023-02-01T04:50:40;4.40;99.90
20946;DHT22;10632;51.276;7.116;2023-02-01T04:53:07;4.40;99.90
20946;DHT22;10632;51.276;7.116;2023-02-01T04:55:34;4.50;99.90
20946;DHT22;10632;51.276;7.116;2023-02-01T04:58:01;4.40;99.90
20946;DHT22;10632;51.276;7.116;2023-02-01T05:00:30;4.40;99.90
20946;DHT22;10632;51.276;7.116;2023-02-01T05:03:04;4.40;99.90
20946;DHT22;10632;51.276;7.116;2023-02-01T05:05:31;4.40;99.90
20946;DHT22;10632;51.276;7.116;2023-02-01T05:07:58;4.40;99.90
20946;DHT22;10632;51.276;7.116;2023-02-01T05:10:28;4.50;99.90
20946;DHT22;10632;51.276;7.116;2023-02-01T05:12:55;4.40;99.90
20946;DHT22;10632;51.276;7.116;2023-02-01T05:15:39;4.40;99.90
20946;DHT22;10632;51.276;7.116;2023-02-01T05:18:08;4.40;99.90
20946;DHT22;10632;51.276;7.116;2023-02-01T05:20:34;4.40;99.90
20946;DHT22;10632;51.276;7.116;2023-02-01T05:23:01;4.30;99.90
20946;DHT22;10632;51.276;7.116;2023-02-01T05:25:28;4.30;99.90
20946;DHT22;10632;51.276;7.116;2023-02-01T05:27:57;4.40;99.90
20946;DHT22;10632;51.276;7.116;2023-02-01T05:30:24;4.30;99.90
20946;DHT22;10632;51.276;7.116;2023-02-01T05:32:52;4.30;99.90
20946;DHT22;10632;51.276;7.116;2023-02-01T05:35:20;4.20;99.90
20946;DHT22;10632;51.276;7.116;2023-02-01T05:37:48;4.30;99.90
20946;DHT22;10632;51.276;7.116;2023-02-01T05:40:15;4.20;99.90
20946;DHT22;10632;51.276;7.116;2023-02-01T05:42:42;4.20;99.90
20946;DHT22;10632;51.276;7.116;2023-02-01T05:45:09;4.20;99.90
20946;DHT22;10632;51.276;7.116;2023-02-01T05:47:36;4.20;99.90
20946;DHT22;10632;51.276;7.116;2023-02-01T05:50:04;4.20;99.90
20946;DHT22;10632;51.276;7.116;2023-02-01T05:52:32;4.20;99.90
20946;DHT22;10632;51.276;7.116;2023-02-01T05:54:59;4.20;99.90
20946;DHT22;10632;51.276;7.116;2023-02-01T05:57:26;4.10;99.90
20946;DHT22;10632;51.276;7.116;2023-02-01T05:59:57;4.10;99.90
20946;DHT22;10632;51.276;7.116;2023-02-01T06:02:23;4.10;99.90
20946;DHT22;10632;51.276;7.116;2023-02-01T06:04:50;4.10;99.90
20946;DHT22;10632;51.276;7.116;2023-02-01T06:07:18;4.10;99.90
20946;DHT22;10632;51.276;7.116;2023-02-01T06:09:46;4.10;99.90
20946;DHT22;10632;51.276;7.116;2023-02-01T06:12:13;4.10;99.90
20946;DHT22;10632;51.276;7.116;2023-02-01T06:14:43;4.10;99.90
20946;DHT22;10632;51.276;7.116;2023-02-01T06:17:12;4.10;99.90
20946;DHT22;10632;51.276;7.116;2023-02-01T06:19:39;4.10;99.90
20946;DHT22;10632;51.276;7.116;2023-02-01T06:22:09;4.10;99.90
20946;DHT22;10632;51.276;7.116;2023-02-01T06:24:36;4.10;99.90
20946;DHT22;10632;51.276;7.116;2023-02-01T06:27:08;4.10;99.90
20946;DHT22;10632;51.276;7.116;2023-02-01T06:29:38;4.10;99.90
20946;DHT22;10632;51.276;7.116;2023-02-01T06:32:06;4.10;99.90
20946;DHT22;10632;51.276;7.116;2023-02-01T06:34:34;4.10;99.90
20946;DHT22;10632;51.276;7.116;2023-02-01T06:37:02;4.10;99.90
20946;DHT22;10632;51.276;7.116;2023-02-01T06:39:29;4.10;99.90
20946;DHT22;10632;51.276;7.116;2023-02-01T06:41:56;4.10;99.90
20946;DHT22;10632;51.276;7.116;2023-02-01T06:44:24;4.10;99.90
20946;DHT22;10632;51.276;7.116;2023-02-01T06:46:54;4.10;99.90
20946;DHT22;10632;51.276;7.116;2023-02-01T06:49:21;4.10;99.90
20946;DHT22;10632;51.276;7.116;2023-02-01T06:51:48;4.20;99.90
20946;DHT22;10632;51.276;7.116;2023-02-01T06:54:15;4.10;99.90
20946;DHT22;10632;51.276;7.116;2023-02-01T06:56:42;4.10;99.90
20946;DHT22;10632;51.276;7.116;2023-02-01T06:59:10;4.10;99.90
20946;DHT22;10632;51.276;7.116;2023-02-01T07:01:39;4.10;99.90
20946;DHT22;10632;51.276;7.116;2023-02-01T07:04:06;4.10;99.90
20946;DHT22;10632;51.276;7.116;2023-02-01T07:06:33;4.20;99.90
20946;DHT22;10632;51.276;7.116;2023-02-01T07:09:00;4.20;99.90
20946;DHT22;10632;51.276;7.116;2023-02-01T07:11:27;4.10;99.90
20946;DHT22;10632;51.276;7.116;2023-02-01T07:13:56;4.20;99.90
20946;DHT22;10632;51.276;7.116;2023-02-01T07:16:23;4.20;99.90
20946;DHT22;10632;51.276;7.116;2023-02-01T07:18:53;4.20;99.90
20946;DHT22;10632;51.276;7.116;2023-02-01T07:21:20;4.20;99.90
20946;DHT22;10632;51.276;7.116;2023-02-01T07:23:47;4.10;99.90
20946;DHT22;10632;51.276;7.116;2023-02-01T07:26:14;4.20;99.90
20946;DHT22;10632;51.276;7.116;2023-02-01T07:28:43;4.20;99.90
20946;DHT22;10632;51.276;7.116;2023-02-01T07:31:12;4.20;99.90
20946;DHT22;10632;51.276;7.116;2023-02-01T07:33:41;4.20;99.90
20946;DHT22;10632;51.276;7.116;2023-02-01T07:36:11;4.20;99.90
20946;DHT22;10632;51.276;7.116;2023-02-01T07:38:39;4.30;99.90
20946;DHT22;10632;51.276;7.116;2023-02-01T07:41:06;4.30;99.90
20946;DHT22;10632;51.276;7.116;2023-02-01T07:43:35;4.30;99.90
20946;DHT22;10632;51.276;7.116;2023-02-01T07:46:03;4.30;99.90
20946;DHT22;10632;51.276;7.116;2023-02-01T07:48:31;4.30;99.90
20946;DHT22;10632;51.276;7.116;2023-02-01T07:51:00;4.30;99.90
20946;DHT22;10632;51.276;7.116;2023-02-01T07:53:29;4.30;99.90
20946;DHT22;10632;51.276;7.116;2023-02-01T07:55:57;4.30;99.90
20946;DHT22;10632;51.276;7.116;2023-02-01T07:58:24;4.30;99.90
20946;DHT22;10632;51.276;7.116;2023-02-01T08:00:54;4.40;99.90
20946;DHT22;10632;51.276;7.116;2023-02-01T08:03:39;4.40;99.90
20946;DHT22;10632;51.276;7.116;2023-02-01T08:06:06;4.40;99.90
20946;DHT22;10632;51.276;7.116;2023-02-01T08:08:38;4.30;99.90
20946;DHT22;10632;51.276;7.116;2023-02-01T08:11:05;4.40;99.90
20946;DHT22;10632;51.276;7.116;2023-02-01T08:13:35;4.30;99.90
20946;DHT22;10632;51.276;7.116;2023-02-01T08:16:04;4.40;99.90
20946;DHT22;10632;51.276;7.116;2023-02-01T08:18:32;4.40;99.90
20946;DHT22;10632;51.276;7.116;2023-02-01T08:21:03;4.40;99.90
20946;DHT22;10632;51.276;7.116;2023-02-01T08:23:30;4.40;99.90
20946;DHT22;10632;51.276;7.116;2023-02-01T08:26:06;4.40;99.90
20946;DHT22;10632;51.276;7.116;2023-02-01T08:28:33;4.40;99.90
20946;DHT22;10632;51.276;7.116;2023-02-01T08:31:04;4.40;99.90
20946;DHT22;10632;51.276;7.116;2023-02-01T08:33:31;4.40;99.90
20946;DHT22;10632;51.276;7.116;2023-02-01T08:36:00;4.40;99.90
20946;DHT22;10632;51.276;7.116;2023-02-01T08:38:27;4.40;99.90
20946;DHT22;10632;51.276;7.116;2023-02-01T08:40:54;4.40;99.90
20946;DHT22;10632;51.276;7.116;2023-02-01T08:43:23;4.40;99.90
20946;DHT22;10632;51.276;7.116;2023-02-01T08:45:54;4.40;99.90
20946;DHT22;10632;51.276;7.116;2023-02-01T08:48:21;4.40;99.90
20946;DHT22;10632;51.276;7.116;2023-02-01T08:50:48;4.40;99.90
20946;DHT22;10632;51.276;7.116;2023-02-01T08:53:16;4.40;99.90
20946;DHT22;10632;51.276;7.116;2023-02-01T08:55:43;4.40;99.90
20946;DHT22;10632;51.276;7.116;2023-02-01T08:58:11;4.40;99.90
20946;DHT22;10632;51.276;7.116;2023-02-01T09:00:40;4.40;99.90
20946;DHT22;10632;51.276;7.116;2023-02-01T09:03:09;4.40;99.90
20946;DHT22;10632;51.276;7.116;2023-02-01T09:05:37;4.40;99.90
20946;DHT22;10632;51.276;7.116;2023-02-01T09:08:04;4.40;99.90
20946;DHT22;10632;51.276;7.116;2023-02-01T09:10:31;4.40;99.90
20946;DHT22;10632;51.276;7.116;2023-02-01T09:12:58;4.40;99.90
20946;DHT22;10632;51.276;7.116;2023-02-01T09:15:25;4.40;99.90
20946;DHT22;10632;51.276;7.116;2023-02-01T09:17:53;4.50;99.90
20946;DHT22;10632;51.276;7.116;2023-02-01T09:20:20;4.50;99.90
20946;DHT22;10632;51.276;7.116;2023-02-01T09:22:50;4.50;99.90
20946;DHT22;10632;51.276;7.116;2023-02-01T09:25:17;4.50;99.90
20946;DHT22;10632;51.276;7.116;2023-02-01T09:27:44;4.50;99.90
20946;DHT22;10632;51.276;7.116;2023-02-01T09:30:11;4.50;99.90
20946;DHT22;10632;51.276;7.116;2023-02-01T09:32:38;4.50;99.90
20946;DHT22;10632;51.276;7.116;2023-02-01T09:35:07;4.50;99.90
20946;DHT22;10632;51.276;7.116;2023-02-01T09:37:34;4.50;99.90
20946;DHT22;10632;51.276;7.116;2023-02-01T09:40:01;4.50;99.90
20946;DHT22;10632;51.276;7.116;2023-02-01T09:42:49;4.50;99.90
20946;DHT22;10632;51.276;7.116;2023-02-01T09:45:26;4.50;99.90
20946;DHT22;10632;51.276;7.116;2023-02-01T09:48:00;4.50;99.90
20946;DHT22;10632;51.276;7.116;2023-02-01T09:50:34;4.60;99.90
20946;DHT22;10632;51.276;7.116;2023-02-01T09:53:09;4.60;99.90
20946;DHT22;10632;51.276;7.116;2023-02-01T09:55:40;4.60;99.90
20946;DHT22;10632;51.276;7.116;2023-02-01T09:58:12;4.60;99.90
20946;DHT22;10632;51.276;7.116;2023-02-01T10:00:51;4.60;99.90
20946;DHT22;10632;51.276;7.116;2023-02-01T10:03:19;4.60;99.90
20946;DHT22;10632;51.276;7.116;2023-02-01T10:06:01;4.60;99.90
20946;DHT22;10632;51.276;7.116;2023-02-01T10:08:36;4.60;99.90
20946;DHT22;10632;51.276;7.116;2023-02-01T10:11:13;4.60;99.90
20946;DHT22;10632;51.276;7.116;2023-02-01T10:13:50;4.70;99.90
20946;DHT22;10632;51.276;7.116;2023-02-01T10:16:33;4.60;99.90
20946;DHT22;10632;51.276;7.116;2023-02-01T10:19:24;4.70;99.90
20946;DHT22;10632;51.276;7.116;2023-02-01T10:22:00;4.70;99.90
20946;DHT22;10632;51.276;7.116;2023-02-01T10:24:40;4.70;99.90
20946;DHT22;10632;51.276;7.116;2023-02-01T10:27:13;4.70;99.90
20946;DHT22;10632;51.276;7.116;2023-02-01T10:29:42;4.70;99.90
20946;DHT22;10632;51.276;7.116;2023-02-01T10:32:14;4.70;99.90
20946;DHT22;10632;51.276;7.116;2023-02-01T10:34:42;4.70;99.90
20946;DHT22;10632;51.276;7.116;2023-02-01T10:37:22;4.70;99.90
20946;DHT22;10632;51.276;7.116;2023-02-01T10:39:52;4.70;99.90
20946;DHT22;10632;51.276;7.116;2023-02-01T10:42:25;4.70;99.90
20946;DHT22;10632;51.276;7.116;2023-02-01T10:44:55;4.70;99.90
20946;DHT22;10632;51.276;7.116;2023-02-01T10:47:23;4.70;99.90
20946;DHT22;10632;51.276;7.116;2023-02-01T10:49:54;4.70;99.90
20946;DHT22;10632;51.276;7.116;2023-02-01T10:52:33;4.60;99.90
20946;DHT22;10632;51.276;7.116;2023-02-01T10:55:25;4.70;99.90
20946;DHT22;10632;51.276;7.116;2023-02-01T10:57:56;4.70;99.90
20946;DHT22;10632;51.276;7.116;2023-02-01T11:00:28;4.70;99.90
20946;DHT22;10632;51.276;7.116;2023-02-01T11:02:57;4.60;99.90
20946;DHT22;10632;51.276;7.116;2023-02-01T11:05:24;4.60;99.90
20946;DHT22;10632;51.276;7.116;2023-02-01T11:07:54;4.60;99.90
20946;DHT22;10632;51.276;7.116;2023-02-01T11:10:42;4.60;99.90
20946;DHT22;10632;51.276;7.116;2023-02-01T11:13:15;4.70;99.90
20946;DHT22;10632;51.276;7.116;2023-02-01T11:15:44;4.70;99.90
20946;DHT22;10632;51.276;7.116;2023-02-01T11:18:17;4.70;99.90
20946;DHT22;10632;51.276;7.116;2023-02-01T11:20:45;4.70;99.90
20946;DHT22;10632;51.276;7.116;2023-02-01T11:23:17;4.80;99.90
20946;DHT22;10632;51.276;7.116;2023-02-01T11:25:49;4.90;99.90
20946;DHT22;10632;51.276;7.116;2023-02-01T11:28:18;4.90;99.90
20946;DHT22;10632;51.276;7.116;2023-02-01T11:30:47;4.90;99.90
20946;DHT22;10632;51.276;7.116;2023-02-01T11:33:17;5.00;99.90
20946;DHT22;10632;51.276;7.116;2023-02-01T11:35:46;5.00;99.90
20946;DHT22;10632;51.276;7.116;2023-02-01T11:38:21;5.00;99.90
20946;DHT22;10632;51.276;7.116;2023-02-01T11:40:49;5.10;99.90
20946;DHT22;10632;51.276;7.116;2023-02-01T11:43:22;5.10;99.90
20946;DHT22;10632;51.276;7.116;2023-02-01T11:45:58;5.10;99.90
20946;DHT22;10632;51.276;7.116;2023-02-01T11:48:27;5.20;99.90
20946;DHT22;10632;51.276;7.116;2023-02-01T11:51:04;5.20;99.90
20946;DHT22;10632;51.276;7.116;2023-02-01T11:53:49;5.20;99.90
20946;DHT22;10632;51.276;7.116;2023-02-01T11:56:28;5.20;99.90
20946;DHT22;10632;51.276;7.116;2023-02-01T11:59:14;5.20;99.90
20946;DHT22;10632;51.276;7.116;2023-02-01T12:02:06;5.20;99.90
20946;DHT22;10632;51.276;7.116;2023-02-01T12:04:55;5.20;99.90
20946;DHT22;10632;51.276;7.116;2023-02-01T12:07:35;5.20;99.90
20946;DHT22;10632;51.276;7.116;2023-02-01T12:10:22;5.20;99.90
20946;DHT22;10632;51.276;7.116;2023-02-01T12:12:56;5.30;99.90
20946;DHT22;10632;51.276;7.116;2023-02-01T12:15:34;5.20;99.90
20946;DHT22;10632;51.276;7.116;2023-02-01T12:21:05;5.20;99.90
20946;DHT22;10632;51.276;7.116;2023-02-01T12:23:52;5.20;99.90
20946;DHT22;10632;51.276;7.116;2023-02-01T12:29:48;5.20;99.90
20946;DHT22;10632;51.276;7.116;2023-02-01T12:32:43;5.20;99.90
20946;DHT22;10632;51.276;7.116;2023-02-01T12:35:44;5.30;99.90
20946;DHT22;10632;51.276;7.116;2023-02-01T12:38:25;5.30;99.90
20946;DHT22;10632;51.276;7.116;2023-02-01T12:41:06;5.30;99.90
20946;DHT22;10632;51.276;7.116;2023-02-01T12:43:39;5.30;99.90
20946;DHT22;10632;51.276;7.116;2023-02-01T12:46:13;5.30;99.90
20946;DHT22;10632;51.276;7.116;2023-02-01T12:48:52;5.30;99.90
20946;DHT22;10632;51.276;7.116;2023-02-01T12:51:25;5.30;99.90
20946;DHT22;10632;51.276;7.116;2023-02-01T12:53:56;5.40;99.90
20946;DHT22;10632;51.276;7.116;2023-02-01T12:56:28;5.40;99.90
20946;DHT22;10632;51.276;7.116;2023-02-01T12:58:59;5.40;99.90
20946;DHT22;10632;51.276;7.116;2023-02-01T13:01:34;5.40;99.90
20946;DHT22;10632;51.276;7.116;2023-02-01T13:04:05;5.40;99.90
20946;DHT22;10632;51.276;7.116;2023-02-01T13:06:39;5.40;99.90
20946;DHT22;10632;51.276;7.116;2023-02-01T13:09:18;5.40;99.90
20946;DHT22;10632;51.276;7.116;2023-02-01T13:11:49;5.50;99.90
20946;DHT22;10632;51.276;7.116;2023-02-01T13:14:25;5.50;99.90
20946;DHT22;10632;51.276;7.116;2023-02-01T13:17:00;5.50;99.90
20946;DHT22;10632;51.276;7.116;2023-02-01T13:19:40;5.50;99.90
20946;DHT22;10632;51.276;7.116;2023-02-01T13:22:13;5.50;99.90
20946;DHT22;10632;51.276;7.116;2023-02-01T13:24:45;5.50;99.90
20946;DHT22;10632;51.276;7.116;2023-02-01T13:27:13;5.40;99.90
20946;DHT22;10632;51.276;7.116;2023-02-01T13:29:45;5.40;99.90
20946;DHT22;10632;51.276;7.116;2023-02-01T13:32:35;5.40;99.90
20946;DHT22;10632;51.276;7.116;2023-02-01T13:38:21;5.40;99.90
20946;DHT22;10632;51.276;7.116;2023-02-01T13:41:01;5.30;99.90
20946;DHT22;10632;51.276;7.116;2023-02-01T13:43:33;5.30;99.90
20946;DHT22;10632;51.276;7.116;2023-02-01T13:46:05;5.30;99.90
20946;DHT22;10632;51.276;7.116;2023-02-01T13:48:39;5.20;99.90
20946;DHT22;10632;51.276;7.116;2023-02-01T13:51:08;5.30;99.90
20946;DHT22;10632;51.276;7.116;2023-02-01T13:53:36;5.20;99.90
20946;DHT22;10632;51.276;7.116;2023-02-01T13:56:10;5.30;99.90
20946;DHT22;10632;51.276;7.116;2023-02-01T13:58:39;5.20;99.90
20946;DHT22;10632;51.276;7.116;2023-02-01T14:01:32;5.20;99.90
20946;DHT22;10632;51.276;7.116;2023-02-01T14:04:03;5.20;99.90
20946;DHT22;10632;51.276;7.116;2023-02-01T14:06:44;5.20;99.90
20946;DHT22;10632;51.276;7.116;2023-02-01T14:09:19;5.10;99.90
20946;DHT22;10632;51.276;7.116;2023-02-01T14:11:58;5.20;99.90
20946;DHT22;10632;51.276;7.116;2023-02-01T14:14:48;5.10;99.90
20946;DHT22;10632;51.276;7.116;2023-02-01T14:17:39;5.10;99.90
20946;DHT22;10632;51.276;7.116;2023-02-01T14:26:10;5.20;99.90
20946;DHT22;10632;51.276;7.116;2023-02-01T14:28:42;5.30;99.90
20946;DHT22;10632;51.276;7.116;2023-02-01T14:31:25;5.30;99.90
20946;DHT22;10632;51.276;7.116;2023-02-01T14:33:57;5.40;99.90
20946;DHT22;10632;51.276;7.116;2023-02-01T14:36:26;5.50;99.90
20946;DHT22;10632;51.276;7.116;2023-02-01T14:39:26;5.60;99.90
20946;DHT22;10632;51.276;7.116;2023-02-01T14:41:56;5.70;99.90
20946;DHT22;10632;51.276;7.116;2023-02-01T14:44:29;5.70;99.90
20946;DHT22;10632;51.276;7.116;2023-02-01T14:53:20;5.80;99.90
20946;DHT22;10632;51.276;7.116;2023-02-01T14:55:52;5.80;99.90
20946;DHT22;10632;51.276;7.116;2023-02-01T14:58:29;5.80;99.90
20946;DHT22;10632;51.276;7.116;2023-02-01T15:01:00;5.80;99.90
20946;DHT22;10632;51.276;7.116;2023-02-01T15:03:46;5.90;99.90
20946;DHT22;10632;51.276;7.116;2023-02-01T15:06:32;5.90;99.90
20946;DHT22;10632;51.276;7.116;2023-02-01T15:09:08;5.90;99.90
20946;DHT22;10632;51.276;7.116;2023-02-01T15:11:55;5.90;99.90
20946;DHT22;10632;51.276;7.116;2023-02-01T15:14:22;6.00;99.90
20946;DHT22;10632;51.276;7.116;2023-02-01T15:16:49;6.00;99.90
20946;DHT22;10632;51.276;7.116;2023-02-01T15:19:21;6.00;99.90
20946;DHT22;10632;51.276;7.116;2023-02-01T15:21:49;6.00;99.90
20946;DHT22;10632;51.276;7.116;2023-02-01T15:24:22;6.00;99.90
20946;DHT22;10632;51.276;7.116;2023-02-01T15:26:49;6.00;99.90
20946;DHT22;10632;51.276;7.116;2023-02-01T15:29:18;6.00;99.90
20946;DHT22;10632;51.276;7.116;2023-02-01T15:31:47;6.00;99.90
20946;DHT22;10632;51.276;7.116;2023-02-01T15:34:15;6.00;99.90
20946;DHT22;10632;51.276;7.116;2023-02-01T15:36:42;6.10;99.90
20946;DHT22;10632;51.276;7.116;2023-02-01T15:39:19;6.10;99.90
20946;DHT22;10632;51.276;7.116;2023-02-01T15:41:50;6.00;99.90
20946;DHT22;10632;51.276;7.116;2023-02-01T15:44:27;6.00;99.90
20946;DHT22;10632;51.276;7.116;2023-02-01T15:46:55;6.00;99.90
20946;DHT22;10632;51.276;7.116;2023-02-01T15:49:25;6.00;99.90
20946;DHT22;10632;51.276;7.116;2023-02-01T15:51:54;6.00;99.90
20946;DHT22;10632;51.276;7.116;2023-02-01T15:54:25;6.00;99.90
20946;DHT22;10632;51.276;7.116;2023-02-01T15:56:54;6.00;99.90
20946;DHT22;10632;51.276;7.116;2023-02-01T15:59:28;6.00;99.90
20946;DHT22;10632;51.276;7.116;2023-02-01T16:01:55;6.00;99.90
20946;DHT22;10632;51.276;7.116;2023-02-01T16:04:24;6.10;99.90
20946;DHT22;10632;51.276;7.116;2023-02-01T16:06:53;6.00;99.90
20946;DHT22;10632;51.276;7.116;2023-02-01T16:09:22;6.00;99.90
20946;DHT22;10632;51.276;7.116;2023-02-01T16:11:55;6.10;99.90
20946;DHT22;10632;51.276;7.116;2023-02-01T16:14:24;6.10;99.90
20946;DHT22;10632;51.276;7.116;2023-02-01T16:16:55;6.10;99.90
20946;DHT22;10632;51.276;7.116;2023-02-01T16:19:22;6.10;99.90
20946;DHT22;10632;51.276;7.116;2023-02-01T16:21:53;6.00;99.90
20946;DHT22;10632;51.276;7.116;2023-02-01T16:24:20;6.00;99.90
20946;DHT22;10632;51.276;7.116;2023-02-01T16:26:48;6.00;99.90
20946;DHT22;10632;51.276;7.116;2023-02-01T16:29:15;6.00;99.90
20946;DHT22;10632;51.276;7.116;2023-02-01T16:31:43;6.00;99.90
20946;DHT22;10632;51.276;7.116;2023-02-01T16:34:14;6.00;99.90
20946;DHT22;10632;51.276;7.116;2023-02-01T16:36:42;6.00;99.90
20946;DHT22;10632;51.276;7.116;2023-02-01T16:39:11;6.00;99.90
20946;DHT22;10632;51.276;7.116;2023-02-01T16:41:38;6.00;99.90
20946;DHT22;10632;51.276;7.116;2023-02-01T16:44:05;6.00;99.90